Time;durP1;ratioP1;P1;durP2;ratioP2;P2;SDS_P1;SDS_P2;PMS_P1;PMS_P2;Temp;Humidity;BMP_temperature;BMP_pressure;BME280_temperature;BME280_humidity;BME280_pressure;Samples;Min_cycle;Max_cycle;Signal;HPM_P1;HPM_P2
2023/06/09 00:02:18;;;;;;;12.00;6.70;;;;;;;;;;5058719;28;20479;-82
2023/06/09 00:04:45;;;;;;;10.27;6.57;;;;;;;;;;5069875;28;20492;-81
2023/06/09 00:07:15;;;;;;;12.43;7.53;;;;;;;;;;5057022;28;20854;-82
2023/06/09 00:09:42;;;;;;;17.10;7.33;;;;;;;;;;5065048;28;20876;-82
2023/06/09 00:12:09;;;;;;;20.07;7.03;;;;;;;;;;5061216;28;20471;-82
2023/06/09 00:14:36;;;;;;;16.13;9.07;;;;;;;;;;5056424;28;20440;-81
2023/06/09 00:17:07;;;;;;;10.90;6.80;;;;;;;;;;5058858;28;20483;-82
2023/06/09 00:19:34;;;;;;;21.03;7.20;;;;;;;;;;5051662;28;20826;-82
2023/06/09 00:22:01;;;;;;;16.10;6.43;;;;;;;;;;5063258;28;20471;-81
2023/06/09 00:24:29;;;;;;;12.83;6.03;;;;;;;;;;5062282;28;20448;-81
2023/06/09 00:26:56;;;;;;;15.40;7.60;;;;;;;;;;5059004;28;20554;-81
2023/06/09 00:29:23;;;;;;;18.40;7.73;;;;;;;;;;5060003;28;20439;-83
2023/06/09 00:31:51;;;;;;;16.47;6.83;;;;;;;;;;5054053;28;21063;-80
2023/06/09 00:34:17;;;;;;;16.80;6.77;;;;;;;;;;5059226;28;20972;-80
2023/06/09 00:36:43;;;;;;;15.37;7.67;;;;;;;;;;5054406;28;20858;-80
2023/06/09 00:39:10;;;;;;;12.47;6.80;;;;;;;;;;5054351;28;20475;-82
2023/06/09 00:41:36;;;;;;;8.30;5.67;;;;;;;;;;5062907;28;20853;-80
2023/06/09 00:44:03;;;;;;;13.90;6.40;;;;;;;;;;5063069;28;20452;-80
2023/06/09 00:46:30;;;;;;;11.93;6.40;;;;;;;;;;5055633;28;20467;-80
2023/06/09 00:48:58;;;;;;;17.93;7.20;;;;;;;;;;5064983;28;20489;-80
2023/06/09 00:51:24;;;;;;;15.33;6.87;;;;;;;;;;5059940;28;20551;-80
2023/06/09 00:53:51;;;;;;;10.70;6.73;;;;;;;;;;5057765;28;20501;-81
2023/06/09 00:56:18;;;;;;;16.63;7.00;;;;;;;;;;5059444;28;20467;-82
2023/06/09 00:58:45;;;;;;;14.33;6.33;;;;;;;;;;5022465;28;20459;-82
2023/06/09 01:01:11;;;;;;;12.27;6.30;;;;;;;;;;5060358;28;20470;-81
2023/06/09 01:03:38;;;;;;;20.13;7.57;;;;;;;;;;5060335;28;20448;-82
2023/06/09 01:06:12;;;;;;;15.90;8.10;;;;;;;;;;5062721;28;20515;-81
2023/06/09 01:08:41;;;;;;;14.70;7.03;;;;;;;;;;5057370;28;20490;-82
2023/06/09 01:11:09;;;;;;;13.43;7.07;;;;;;;;;;5041156;28;20463;-81
2023/06/09 01:13:40;;;;;;;15.37;7.90;;;;;;;;;;5058484;28;20455;-82
2023/06/09 01:16:11;;;;;;;18.30;8.00;;;;;;;;;;5050725;28;20471;-81
2023/06/09 01:18:42;;;;;;;14.77;7.30;;;;;;;;;;5060023;28;20455;-81
2023/06/09 01:21:17;;;;;;;16.63;8.20;;;;;;;;;;5043898;28;20471;-82
2023/06/09 01:23:51;;;;;;;14.23;7.30;;;;;;;;;;5060222;28;20443;-82
2023/06/09 01:26:20;;;;;;;13.83;6.53;;;;;;;;;;5060063;28;20467;-82
2023/06/09 01:28:47;;;;;;;16.27;7.07;;;;;;;;;;5059715;28;20484;-81
2023/06/09 01:31:15;;;;;;;10.53;6.23;;;;;;;;;;5043078;28;20475;-80
2023/06/09 01:33:42;;;;;;;15.53;7.00;;;;;;;;;;5061141;28;20889;-82
2023/06/09 01:36:10;;;;;;;15.07;7.13;;;;;;;;;;5055561;28;21045;-82
2023/06/09 01:38:37;;;;;;;15.37;7.10;;;;;;;;;;5048198;28;20463;-82
2023/06/09 01:41:03;;;;;;;15.00;7.37;;;;;;;;;;5060343;28;20471;-81
2023/06/09 01:43:31;;;;;;;11.10;7.03;;;;;;;;;;5067506;28;20462;-81
2023/06/09 01:45:58;;;;;;;15.57;7.80;;;;;;;;;;5054567;28;20463;-82
2023/06/09 01:48:28;;;;;;;16.00;8.10;;;;;;;;;;5054705;28;20488;-82
2023/06/09 01:50:56;;;;;;;18.10;8.57;;;;;;;;;;5062462;28;20528;-81
2023/06/09 01:53:25;;;;;;;20.40;7.80;;;;;;;;;;5060456;28;20498;-81
2023/06/09 01:55:54;;;;;;;12.73;7.50;;;;;;;;;;5057214;28;22546;-82
2023/06/09 01:58:23;;;;;;;15.07;8.20;;;;;;;;;;5054350;28;20471;-82
2023/06/09 02:00:52;;;;;;;11.77;7.47;;;;;;;;;;5051996;28;20459;-82
2023/06/09 02:03:22;;;;;;;15.90;7.87;;;;;;;;;;5057825;28;20463;-82
2023/06/09 02:05:50;;;;;;;19.60;7.50;;;;;;;;;;5059601;28;20817;-82
2023/06/09 02:08:16;;;;;;;13.27;8.20;;;;;;;;;;5056286;28;20989;-82
2023/06/09 02:10:42;;;;;;;17.17;7.60;;;;;;;;;;5062544;28;20466;-82
2023/06/09 02:13:12;;;;;;;13.83;7.80;;;;;;;;;;5060226;28;20819;-82
2023/06/09 02:15:39;;;;;;;20.93;8.07;;;;;;;;;;5051686;28;20439;-82
2023/06/09 02:18:07;;;;;;;16.33;8.53;;;;;;;;;;5062974;28;20546;-82
2023/06/09 02:20:35;;;;;;;14.50;8.00;;;;;;;;;;5058451;28;20860;-81
2023/06/09 02:23:01;;;;;;;13.43;6.93;;;;;;;;;;5056245;28;20444;-81
2023/06/09 02:25:28;;;;;;;15.53;8.77;;;;;;;;;;5063727;28;20451;-81
2023/06/09 02:27:54;;;;;;;19.50;7.77;;;;;;;;;;5059966;28;20486;-81
2023/06/09 02:30:21;;;;;;;11.27;7.07;;;;;;;;;;5057391;28;20470;-81
2023/06/09 02:32:48;;;;;;;20.13;8.63;;;;;;;;;;5064571;28;20480;-81
2023/06/09 02:35:15;;;;;;;15.10;7.93;;;;;;;;;;5058677;28;20452;-82
2023/06/09 02:37:42;;;;;;;14.77;7.87;;;;;;;;;;5055330;28;20475;-81
2023/06/09 02:40:09;;;;;;;16.20;7.80;;;;;;;;;;5061390;28;20439;-81
2023/06/09 02:42:35;;;;;;;14.17;8.90;;;;;;;;;;5031976;28;20478;-81
2023/06/09 02:45:02;;;;;;;13.77;7.37;;;;;;;;;;5065319;28;20447;-82
2023/06/09 02:47:28;;;;;;;20.00;8.77;;;;;;;;;;5038390;28;20486;-81
2023/06/09 02:49:55;;;;;;;16.10;8.80;;;;;;;;;;5061728;28;20455;-81
2023/06/09 02:52:23;;;;;;;9.93;6.60;;;;;;;;;;5044714;28;20495;-81
2023/06/09 02:54:49;;;;;;;16.53;9.30;;;;;;;;;;5060926;28;20452;-82
2023/06/09 02:57:15;;;;;;;12.77;8.80;;;;;;;;;;5063885;28;20482;-81
2023/06/09 02:59:42;;;;;;;15.60;8.37;;;;;;;;;;5067067;28;20439;-81
2023/06/09 03:02:08;;;;;;;15.03;8.03;;;;;;;;;;5035519;28;20553;-81
2023/06/09 03:04:35;;;;;;;14.07;8.37;;;;;;;;;;5057220;28;20451;-81
2023/06/09 03:07:01;;;;;;;16.00;8.47;;;;;;;;;;5059391;28;20472;-81
2023/06/09 03:09:29;;;;;;;14.23;8.30;;;;;;;;;;5055618;28;20482;-81
2023/06/09 03:11:58;;;;;;;17.87;8.60;;;;;;;;;;5068316;28;20468;-81
2023/06/09 03:14:25;;;;;;;15.53;8.60;;;;;;;;;;5065113;28;20451;-81
2023/06/09 03:16:52;;;;;;;21.90;8.80;;;;;;;;;;5062331;28;20479;-81
2023/06/09 03:19:19;;;;;;;16.43;8.90;;;;;;;;;;5068459;28;20570;-82
2023/06/09 03:21:46;;;;;;;18.50;8.53;;;;;;;;;;5063732;28;20477;-81
2023/06/09 03:24:13;;;;;;;20.30;8.40;;;;;;;;;;5063047;28;20459;-81
2023/06/09 03:26:40;;;;;;;14.60;8.43;;;;;;;;;;5065208;28;20471;-81
2023/06/09 03:29:07;;;;;;;14.47;8.77;;;;;;;;;;5059070;28;20506;-81
2023/06/09 03:31:33;;;;;;;19.20;9.60;;;;;;;;;;5061636;28;21015;-81
2023/06/09 03:34:00;;;;;;;15.33;9.47;;;;;;;;;;5071461;28;20478;-81
2023/06/09 03:36:27;;;;;;;10.73;8.30;;;;;;;;;;5068388;28;20475;-81
2023/06/09 03:38:54;;;;;;;14.90;8.30;;;;;;;;;;5064899;28;20485;-80
2023/06/09 03:41:21;;;;;;;13.67;8.50;;;;;;;;;;5060350;28;20517;-81
2023/06/09 03:43:49;;;;;;;17.63;10.03;;;;;;;;;;5067247;28;20823;-82
2023/06/09 03:46:15;;;;;;;13.70;8.67;;;;;;;;;;5064623;28;20475;-81
2023/06/09 03:48:41;;;;;;;18.67;8.90;;;;;;;;;;5064721;28;20856;-81
2023/06/09 03:51:08;;;;;;;16.73;9.80;;;;;;;;;;5060300;28;20463;-81
2023/06/09 03:53:34;;;;;;;18.17;8.57;;;;;;;;;;5069864;28;20810;-81
2023/06/09 03:56:00;;;;;;;14.13;9.00;;;;;;;;;;5069310;28;20488;-81
2023/06/09 03:58:27;;;;;;;16.63;9.70;;;;;;;;;;5080010;28;20462;-81
2023/06/09 04:00:55;;;;;;;16.37;9.33;;;;;;;;;;5079775;28;20469;-81
2023/06/09 04:03:22;;;;;;;17.23;8.90;;;;;;;;;;5084162;28;20542;-81
2023/06/09 04:05:48;;;;;;;19.50;9.67;;;;;;;;;;5083429;28;20492;-81
2023/06/09 04:08:15;;;;;;;15.90;8.83;;;;;;;;;;5087502;28;20485;-81
2023/06/09 04:10:42;;;;;;;19.60;10.17;;;;;;;;;;5074379;28;20446;-81
2023/06/09 04:13:08;;;;;;;19.63;8.67;;;;;;;;;;5074984;28;20447;-81
2023/06/09 04:15:35;;;;;;;20.67;9.80;;;;;;;;;;5070136;28;20446;-81
2023/06/09 04:18:03;;;;;;;20.47;8.87;;;;;;;;;;5080889;28;20458;-81
2023/06/09 04:20:29;;;;;;;21.00;9.47;;;;;;;;;;5079815;28;20447;-81
2023/06/09 04:22:56;;;;;;;16.63;9.63;;;;;;;;;;5057064;28;20472;-81
2023/06/09 04:25:25;;;;;;;16.00;8.33;;;;;;;;;;5061236;28;20444;-81
2023/06/09 04:27:52;;;;;;;21.60;10.20;;;;;;;;;;5076228;28;20467;-81
2023/06/09 04:30:19;;;;;;;16.23;9.87;;;;;;;;;;5054596;28;20542;-81
2023/06/09 04:32:50;;;;;;;16.20;10.30;;;;;;;;;;5054860;28;20480;-81
2023/06/09 04:35:19;;;;;;;22.93;10.20;;;;;;;;;;5063009;28;20452;-81
2023/06/09 04:37:45;;;;;;;21.37;10.67;;;;;;;;;;5055055;28;20565;-81
2023/06/09 04:40:14;;;;;;;18.27;10.17;;;;;;;;;;5062331;28;20483;-81
2023/06/09 04:42:40;;;;;;;24.00;10.17;;;;;;;;;;5053149;28;20922;-81
2023/06/09 04:45:07;;;;;;;24.10;10.70;;;;;;;;;;5057681;28;20475;-81
2023/06/09 04:47:34;;;;;;;20.80;11.50;;;;;;;;;;5055465;28;20483;-81
2023/06/09 04:50:03;;;;;;;18.60;9.80;;;;;;;;;;5063518;28;20494;-80
2023/06/09 04:52:31;;;;;;;24.83;10.07;;;;;;;;;;5048919;28;20854;-81
2023/06/09 04:54:57;;;;;;;18.33;9.47;;;;;;;;;;5045128;28;20853;-81
2023/06/09 04:57:28;;;;;;;21.80;9.83;;;;;;;;;;5063627;28;20480;-81
2023/06/09 04:59:55;;;;;;;26.13;10.23;;;;;;;;;;5067381;28;20443;-81
2023/06/09 05:02:22;;;;;;;25.33;9.80;;;;;;;;;;5035116;28;20475;-81
2023/06/09 05:04:48;;;;;;;16.73;9.23;;;;;;;;;;5048464;28;20454;-81
2023/06/09 05:07:15;;;;;;;17.90;10.50;;;;;;;;;;5073154;28;20466;-81
2023/06/09 05:09:42;;;;;;;17.90;9.53;;;;;;;;;;5061509;28;20554;-81
2023/06/09 05:12:09;;;;;;;26.33;10.50;;;;;;;;;;5066978;28;20462;-81
2023/06/09 05:14:36;;;;;;;18.20;9.40;;;;;;;;;;5053431;28;20487;-81
2023/06/09 05:17:06;;;;;;;18.63;10.20;;;;;;;;;;5052943;28;20854;-81
2023/06/09 05:19:32;;;;;;;20.83;9.40;;;;;;;;;;5054718;28;20824;-82
2023/06/09 05:22:01;;;;;;;21.37;10.30;;;;;;;;;;5041490;28;20488;-81
2023/06/09 05:24:27;;;;;;;21.13;10.03;;;;;;;;;;5053753;28;20514;-81
2023/06/09 05:26:55;;;;;;;19.53;9.13;;;;;;;;;;5062528;28;21013;-81
2023/06/09 05:29:21;;;;;;;21.10;9.73;;;;;;;;;;5051576;28;20479;-81
2023/06/09 05:31:48;;;;;;;19.13;9.77;;;;;;;;;;5035790;28;20488;-81
2023/06/09 05:34:14;;;;;;;16.30;9.83;;;;;;;;;;5054442;28;20460;-81
2023/06/09 05:36:41;;;;;;;14.70;8.57;;;;;;;;;;5042880;28;20480;-81
2023/06/09 05:39:07;;;;;;;16.83;9.13;;;;;;;;;;5064008;28;22472;-81
2023/06/09 05:41:34;;;;;;;12.73;8.77;;;;;;;;;;5067397;28;20519;-80
2023/06/09 05:44:02;;;;;;;18.00;8.50;;;;;;;;;;5078445;28;20504;-81
2023/06/09 05:46:29;;;;;;;16.37;9.37;;;;;;;;;;5066706;28;20475;-81
2023/06/09 05:48:55;;;;;;;12.57;8.20;;;;;;;;;;5082147;28;20491;-81
2023/06/09 05:51:22;;;;;;;12.00;7.83;;;;;;;;;;5078527;28;20466;-81
2023/06/09 05:53:48;;;;;;;15.37;8.37;;;;;;;;;;5085098;28;20452;-81
2023/06/09 05:56:16;;;;;;;16.53;8.50;;;;;;;;;;5085369;28;20832;-80
2023/06/09 05:58:44;;;;;;;11.27;8.37;;;;;;;;;;5092998;28;20535;-81
2023/06/09 06:01:12;;;;;;;11.47;7.30;;;;;;;;;;5090078;28;20561;-80
2023/06/09 06:03:38;;;;;;;17.83;9.40;;;;;;;;;;5073056;28;20515;-80
2023/06/09 06:06:05;;;;;;;13.83;8.27;;;;;;;;;;5085880;28;20441;-80
2023/06/09 06:08:31;;;;;;;15.50;9.50;;;;;;;;;;5076414;28;20840;-80
2023/06/09 06:10:57;;;;;;;12.63;7.60;;;;;;;;;;5076129;28;20433;-80
2023/06/09 06:13:24;;;;;;;17.80;7.20;;;;;;;;;;5077001;28;20428;-79
2023/06/09 06:15:50;;;;;;;15.33;7.73;;;;;;;;;;5075671;28;20442;-80
2023/06/09 06:18:18;;;;;;;11.57;6.90;;;;;;;;;;5078131;28;20453;-80
2023/06/09 06:20:44;;;;;;;11.90;7.47;;;;;;;;;;5079509;28;20426;-80
2023/06/09 06:23:11;;;;;;;14.33;7.70;;;;;;;;;;5078110;28;20447;-79
2023/06/09 06:25:41;;;;;;;17.93;8.60;;;;;;;;;;5080973;28;20915;-80
2023/06/09 06:28:07;;;;;;;12.30;7.20;;;;;;;;;;5075685;28;20445;-80
2023/06/09 06:30:34;;;;;;;10.20;7.07;;;;;;;;;;5079311;28;20496;-81
2023/06/09 06:33:04;;;;;;;9.10;6.70;;;;;;;;;;5073389;28;20442;-80
2023/06/09 06:35:32;;;;;;;9.73;7.57;;;;;;;;;;5077172;28;20422;-80
2023/06/09 06:37:58;;;;;;;12.60;7.57;;;;;;;;;;5085266;28;20462;-80
2023/06/09 06:40:25;;;;;;;10.33;6.60;;;;;;;;;;5083781;28;20447;-79
2023/06/09 06:42:52;;;;;;;15.60;8.03;;;;;;;;;;5082544;28;20433;-79
2023/06/09 06:45:18;;;;;;;8.83;6.83;;;;;;;;;;5084541;28;20455;-80
2023/06/09 06:47:45;;;;;;;12.80;7.17;;;;;;;;;;5054112;28;20469;-80
2023/06/09 06:50:12;;;;;;;13.60;6.67;;;;;;;;;;5081485;28;20577;-81
2023/06/09 06:52:39;;;;;;;9.63;6.20;;;;;;;;;;5078556;28;20558;-80
2023/06/09 06:55:08;;;;;;;13.77;7.80;;;;;;;;;;5081956;28;20450;-79
2023/06/09 06:57:35;;;;;;;11.43;6.50;;;;;;;;;;5076311;28;20474;-80
2023/06/09 07:00:07;;;;;;;12.50;7.20;;;;;;;;;;5080508;28;20443;-80
2023/06/09 07:02:33;;;;;;;15.40;7.17;;;;;;;;;;5079213;28;20470;-80
2023/06/09 07:05:00;;;;;;;9.00;6.37;;;;;;;;;;5086699;28;20458;-80
2023/06/09 07:07:26;;;;;;;11.70;6.60;;;;;;;;;;5076599;28;20478;-79
2023/06/09 07:09:54;;;;;;;8.17;6.33;;;;;;;;;;5091641;28;20843;-80
2023/06/09 07:12:21;;;;;;;12.13;6.60;;;;;;;;;;5083694;28;20479;-79
2023/06/09 07:14:48;;;;;;;9.87;6.57;;;;;;;;;;5084319;28;20542;-80
2023/06/09 07:17:14;;;;;;;14.40;6.80;;;;;;;;;;5084915;28;20467;-79
2023/06/09 07:19:41;;;;;;;13.27;6.47;;;;;;;;;;5079634;28;20953;-80
2023/06/09 07:22:07;;;;;;;14.10;8.70;;;;;;;;;;5080228;28;20978;-80
2023/06/09 07:24:33;;;;;;;7.43;6.23;;;;;;;;;;5079974;28;20507;-80
2023/06/09 07:27:01;;;;;;;9.93;7.00;;;;;;;;;;5089203;28;20458;-80
2023/06/09 07:29:28;;;;;;;10.53;7.73;;;;;;;;;;5082696;28;20827;-80
2023/06/09 07:31:55;;;;;;;16.13;7.17;;;;;;;;;;5079956;28;20474;-80
2023/06/09 07:34:26;;;;;;;12.23;7.57;;;;;;;;;;5082090;28;20827;-80
2023/06/09 07:36:53;;;;;;;8.73;5.73;;;;;;;;;;5085264;28;20474;-79
2023/06/09 07:39:20;;;;;;;15.33;6.93;;;;;;;;;;5082218;28;20439;-81
2023/06/09 07:41:46;;;;;;;8.83;6.07;;;;;;;;;;5089534;28;21014;-81
2023/06/09 07:44:14;;;;;;;11.07;6.83;;;;;;;;;;5073177;28;20466;-81
2023/06/09 07:46:41;;;;;;;12.00;7.67;;;;;;;;;;5076960;28;20490;-81
2023/06/09 07:49:07;;;;;;;9.37;6.27;;;;;;;;;;5080732;28;20458;-82
2023/06/09 07:51:36;;;;;;;8.67;6.03;;;;;;;;;;5087186;28;20467;-81
2023/06/09 07:54:03;;;;;;;13.20;6.80;;;;;;;;;;5084756;28;20450;-81
2023/06/09 07:56:29;;;;;;;11.37;6.87;;;;;;;;;;5069003;28;20471;-81
2023/06/09 07:58:57;;;;;;;12.70;6.60;;;;;;;;;;5079941;28;20467;-81
2023/06/09 08:01:29;;;;;;;7.73;6.03;;;;;;;;;;5078632;28;20488;-80
2023/06/09 08:03:56;;;;;;;11.37;6.10;;;;;;;;;;5082369;28;20804;-81
2023/06/09 08:06:22;;;;;;;16.83;7.17;;;;;;;;;;5087363;28;20470;-81
2023/06/09 08:08:49;;;;;;;8.43;6.60;;;;;;;;;;5074394;28;20474;-82
2023/06/09 08:11:16;;;;;;;9.33;6.10;;;;;;;;;;5074501;28;20474;-81
2023/06/09 08:13:43;;;;;;;11.77;6.37;;;;;;;;;;5081227;28;20536;-81
2023/06/09 08:16:09;;;;;;;14.57;7.03;;;;;;;;;;5082526;28;20475;-81
2023/06/09 08:18:37;;;;;;;12.07;7.00;;;;;;;;;;5088599;28;20463;-81
2023/06/09 08:21:03;;;;;;;10.67;6.77;;;;;;;;;;5084645;28;20486;-81
2023/06/09 08:23:29;;;;;;;11.17;6.33;;;;;;;;;;5081106;28;20439;-82
2023/06/09 08:25:56;;;;;;;12.43;7.10;;;;;;;;;;5081192;28;20466;-82
2023/06/09 08:28:22;;;;;;;14.13;7.87;;;;;;;;;;5077020;28;20467;-82
2023/06/09 08:30:49;;;;;;;11.57;6.60;;;;;;;;;;5068228;28;20899;-82
2023/06/09 08:33:16;;;;;;;9.47;6.63;;;;;;;;;;5076202;28;20525;-80
2023/06/09 08:35:44;;;;;;;10.03;7.33;;;;;;;;;;5077940;28;20459;-82
2023/06/09 08:38:10;;;;;;;12.67;7.10;;;;;;;;;;5085932;28;20519;-79
2023/06/09 08:40:39;;;;;;;10.83;7.43;;;;;;;;;;5076937;28;20455;-80
2023/06/09 08:43:06;;;;;;;12.40;7.17;;;;;;;;;;5077857;28;20530;-79
2023/06/09 08:45:34;;;;;;;8.90;6.50;;;;;;;;;;5083628;28;20496;-81
2023/06/09 08:48:00;;;;;;;8.50;6.37;;;;;;;;;;5078789;28;20478;-80
2023/06/09 08:50:28;;;;;;;8.80;6.80;;;;;;;;;;5082757;28;20481;-81
2023/06/09 08:52:56;;;;;;;12.40;6.23;;;;;;;;;;5078949;28;20475;-80
2023/06/09 08:55:24;;;;;;;9.50;6.47;;;;;;;;;;5076816;28;20454;-80
2023/06/09 08:57:51;;;;;;;12.50;6.20;;;;;;;;;;5076146;28;20479;-81
2023/06/09 09:00:18;;;;;;;15.03;6.90;;;;;;;;;;5080321;28;20455;-81
2023/06/09 09:02:44;;;;;;;9.13;5.83;;;;;;;;;;5073695;28;20483;-80
2023/06/09 09:05:11;;;;;;;9.63;6.17;;;;;;;;;;5085316;28;20464;-78
2023/06/09 09:07:37;;;;;;;6.73;5.00;;;;;;;;;;5083768;28;20551;-81
2023/06/09 09:10:06;;;;;;;9.40;5.70;;;;;;;;;;5079335;28;20478;-79
2023/06/09 09:12:45;;;;;;;5.87;5.27;;;;;;;;;;5075751;28;20467;-79
2023/06/09 09:15:11;;;;;;;8.00;5.73;;;;;;;;;;5082856;28;20954;-80
2023/06/09 09:17:40;;;;;;;12.07;6.10;;;;;;;;;;5073869;28;21000;-79
2023/06/09 09:20:07;;;;;;;8.00;5.60;;;;;;;;;;5083213;28;20459;-80
2023/06/09 09:22:43;;;;;;;12.13;6.87;;;;;;;;;;5080018;28;20478;-79
2023/06/09 09:25:20;;;;;;;7.53;5.53;;;;;;;;;;5078150;28;20442;-79
2023/06/09 09:27:58;;;;;;;8.33;5.60;;;;;;;;;;5081976;28;20472;-79
2023/06/09 09:30:40;;;;;;;6.93;5.10;;;;;;;;;;5076387;28;20543;-78
2023/06/09 09:33:07;;;;;;;6.80;5.60;;;;;;;;;;5035082;28;20490;-79
2023/06/09 09:35:35;;;;;;;7.07;5.23;;;;;;;;;;5056651;28;20451;-79
2023/06/09 09:38:01;;;;;;;8.17;5.87;;;;;;;;;;5046685;28;20483;-79
2023/06/09 09:40:29;;;;;;;7.67;5.37;;;;;;;;;;5053087;28;20471;-80
2023/06/09 09:42:59;;;;;;;8.70;4.83;;;;;;;;;;5056544;28;20475;-80
2023/06/09 09:45:29;;;;;;;7.97;4.90;;;;;;;;;;5068214;28;20439;-80
2023/06/09 09:48:06;;;;;;;7.17;5.33;;;;;;;;;;5067502;28;20479;-79
2023/06/09 09:50:35;;;;;;;5.87;4.60;;;;;;;;;;5047240;28;20837;-79
2023/06/09 09:53:03;;;;;;;8.37;5.40;;;;;;;;;;5058369;28;20471;-79
2023/06/09 09:55:30;;;;;;;9.73;5.70;;;;;;;;;;5062500;28;20463;-80
2023/06/09 09:57:58;;;;;;;6.80;5.70;;;;;;;;;;5068961;28;20466;-79
2023/06/09 10:00:25;;;;;;;8.63;5.83;;;;;;;;;;5061630;28;20463;-79
2023/06/09 10:02:53;;;;;;;9.43;6.27;;;;;;;;;;5060462;28;20478;-79
2023/06/09 10:05:21;;;;;;;6.10;5.50;;;;;;;;;;5055863;28;20455;-79
2023/06/09 10:07:51;;;;;;;8.93;4.53;;;;;;;;;;5065959;28;20467;-80
2023/06/09 10:10:18;;;;;;;7.23;5.00;;;;;;;;;;5059096;28;20475;-79
2023/06/09 10:12:47;;;;;;;8.87;6.17;;;;;;;;;;5062121;28;20495;-80
2023/06/09 10:15:14;;;;;;;8.27;5.57;;;;;;;;;;5063839;28;20454;-80
2023/06/09 10:17:42;;;;;;;6.53;5.53;;;;;;;;;;5056952;28;20498;-80
2023/06/09 10:20:09;;;;;;;7.33;5.67;;;;;;;;;;5057513;28;20456;-80
2023/06/09 10:22:36;;;;;;;9.17;5.93;;;;;;;;;;5053614;28;21004;-81
2023/06/09 10:25:04;;;;;;;7.37;6.00;;;;;;;;;;5064060;28;20851;-81
2023/06/09 10:27:31;;;;;;;6.17;5.40;;;;;;;;;;5068494;28;20466;-80
2023/06/09 10:29:58;;;;;;;6.50;5.80;;;;;;;;;;5086019;28;20523;-81
2023/06/09 10:32:28;;;;;;;8.20;6.30;;;;;;;;;;5077573;28;20471;-80
2023/06/09 10:34:56;;;;;;;9.63;5.10;;;;;;;;;;5086154;28;21017;-81
2023/06/09 10:37:30;;;;;;;7.90;5.20;;;;;;;;;;5080483;28;20554;-80
2023/06/09 10:39:58;;;;;;;7.07;5.10;;;;;;;;;;5084712;28;20459;-81
2023/06/09 10:42:30;;;;;;;8.67;5.37;;;;;;;;;;5069752;28;21012;-81
2023/06/09 10:44:59;;;;;;;6.43;5.67;;;;;;;;;;5060279;28;20476;-81
2023/06/09 10:47:43;;;;;;;6.73;5.00;;;;;;;;;;5074674;28;20481;-81
2023/06/09 10:50:26;;;;;;;5.20;4.77;;;;;;;;;;5085364;28;20454;-83
2023/06/09 10:52:56;;;;;;;7.77;6.27;;;;;;;;;;5061363;28;20471;-81
2023/06/09 10:55:24;;;;;;;5.90;5.27;;;;;;;;;;5053511;28;20987;-81
2023/06/09 10:57:51;;;;;;;8.77;5.90;;;;;;;;;;5052936;28;20480;-80
2023/06/09 11:00:18;;;;;;;7.50;6.17;;;;;;;;;;5053077;28;20479;-80
2023/06/09 11:02:47;;;;;;;9.80;6.13;;;;;;;;;;5065243;28;20463;-80
2023/06/09 11:05:13;;;;;;;10.53;5.83;;;;;;;;;;5062314;28;20467;-80
2023/06/09 11:07:41;;;;;;;12.00;5.77;;;;;;;;;;5069634;28;20482;-80
2023/06/09 11:10:25;;;;;;;7.93;5.60;;;;;;;;;;5058548;28;20445;-80
2023/06/09 11:12:53;;;;;;;11.07;5.37;;;;;;;;;;5055294;28;20487;-80
2023/06/09 11:15:20;;;;;;;9.33;5.47;;;;;;;;;;5059009;28;20444;-80
2023/06/09 11:17:49;;;;;;;8.47;6.00;;;;;;;;;;5068876;28;20462;-80
2023/06/09 11:20:17;;;;;;;15.07;6.83;;;;;;;;;;5059044;28;20460;-80
2023/06/09 11:22:59;;;;;;;6.90;5.67;;;;;;;;;;5056680;28;20467;-80
2023/06/09 11:25:35;;;;;;;9.43;6.67;;;;;;;;;;5058257;28;20463;-79
2023/06/09 11:28:17;;;;;;;8.50;5.40;;;;;;;;;;5073811;28;20987;-80
2023/06/09 11:30:59;;;;;;;9.23;5.90;;;;;;;;;;5082710;28;20528;-79
2023/06/09 11:33:41;;;;;;;10.20;6.00;;;;;;;;;;5059155;28;20464;-80
2023/06/09 11:36:07;;;;;;;11.20;6.60;;;;;;;;;;5058960;28;20460;-80
2023/06/09 11:38:34;;;;;;;15.40;6.30;;;;;;;;;;5062860;28;20480;-80
2023/06/09 11:41:02;;;;;;;13.17;6.43;;;;;;;;;;5061514;28;20786;-80
2023/06/09 11:43:28;;;;;;;6.90;5.37;;;;;;;;;;5074456;28;21018;-80
2023/06/09 11:46:01;;;;;;;6.03;4.63;;;;;;;;;;5077445;28;20439;-80
2023/06/09 11:48:27;;;;;;;7.77;5.90;;;;;;;;;;5078370;28;20528;-80
2023/06/09 11:50:55;;;;;;;5.50;5.00;;;;;;;;;;5078378;28;20486;-80
2023/06/09 11:53:24;;;;;;;6.97;5.47;;;;;;;;;;5084622;28;20478;-80
2023/06/09 11:55:58;;;;;;;9.20;6.20;;;;;;;;;;5088297;28;20857;-80
2023/06/09 11:58:24;;;;;;;6.50;5.70;;;;;;;;;;5080755;28;20490;-80
2023/06/09 12:00:51;;;;;;;9.73;5.50;;;;;;;;;;5078401;28;20443;-80
2023/06/09 12:03:18;;;;;;;6.80;5.97;;;;;;;;;;5078676;28;20570;-80
2023/06/09 12:05:47;;;;;;;7.93;5.73;;;;;;;;;;5080591;28;20454;-80
2023/06/09 12:08:15;;;;;;;10.47;5.60;;;;;;;;;;5081223;28;20470;-80
2023/06/09 12:10:41;;;;;;;6.27;4.90;;;;;;;;;;5078639;28;20565;-80
2023/06/09 12:13:08;;;;;;;5.10;4.57;;;;;;;;;;5078628;28;20474;-80
2023/06/09 12:15:34;;;;;;;5.83;4.67;;;;;;;;;;5070067;28;20979;-79
2023/06/09 12:18:02;;;;;;;5.73;5.13;;;;;;;;;;5082076;28;20481;-80
2023/06/09 12:20:29;;;;;;;7.00;6.27;;;;;;;;;;5087255;28;20462;-80
2023/06/09 12:22:56;;;;;;;6.17;5.30;;;;;;;;;;5083345;28;20470;-80
2023/06/09 12:25:26;;;;;;;5.90;4.70;;;;;;;;;;5078055;28;20463;-80
2023/06/09 12:27:52;;;;;;;5.77;5.27;;;;;;;;;;5076008;28;20471;-80
2023/06/09 12:30:34;;;;;;;6.90;5.80;;;;;;;;;;5086067;28;20500;-80
2023/06/09 12:33:04;;;;;;;7.03;6.33;;;;;;;;;;5085175;28;20471;-80
2023/06/09 12:35:37;;;;;;;6.43;5.77;;;;;;;;;;5074934;28;20466;-80
2023/06/09 12:38:09;;;;;;;6.20;5.53;;;;;;;;;;5079134;28;20494;-80
2023/06/09 12:40:43;;;;;;;9.20;5.90;;;;;;;;;;5083935;28;20455;-80
2023/06/09 12:43:11;;;;;;;7.00;5.93;;;;;;;;;;5071150;28;20466;-80
2023/06/09 12:45:41;;;;;;;6.13;5.53;;;;;;;;;;5073296;28;20554;-79
2023/06/09 12:48:08;;;;;;;7.97;5.07;;;;;;;;;;5074856;28;20475;-80
2023/06/09 12:50:34;;;;;;;7.10;5.73;;;;;;;;;;5081219;28;20458;-79
2023/06/09 12:53:01;;;;;;;9.93;5.30;;;;;;;;;;5079342;28;20478;-80
2023/06/09 12:55:27;;;;;;;7.80;5.60;;;;;;;;;;5084671;28;20459;-80
2023/06/09 12:57:55;;;;;;;7.00;6.30;;;;;;;;;;5076545;28;20477;-80
2023/06/09 13:00:21;;;;;;;6.13;5.53;;;;;;;;;;5075060;28;20450;-80
2023/06/09 13:02:49;;;;;;;7.30;6.27;;;;;;;;;;5077665;28;21013;-80
2023/06/09 13:05:16;;;;;;;6.40;5.50;;;;;;;;;;5080184;28;20449;-81
2023/06/09 13:07:43;;;;;;;8.60;6.13;;;;;;;;;;5079832;28;20475;-80
2023/06/09 13:10:11;;;;;;;12.20;6.63;;;;;;;;;;5077666;28;20462;-80
2023/06/09 13:12:38;;;;;;;7.60;6.80;;;;;;;;;;5078460;28;21001;-80
2023/06/09 13:15:06;;;;;;;6.07;5.47;;;;;;;;;;5083779;28;20806;-80
2023/06/09 13:17:32;;;;;;;6.67;5.73;;;;;;;;;;5074966;28;20474;-79
2023/06/09 13:19:59;;;;;;;6.37;5.77;;;;;;;;;;5083812;28;20449;-80
2023/06/09 13:22:25;;;;;;;6.33;5.73;;;;;;;;;;5082284;28;20470;-80
2023/06/09 13:24:52;;;;;;;6.27;5.70;;;;;;;;;;5083805;28;20542;-81
2023/06/09 13:27:18;;;;;;;7.47;5.47;;;;;;;;;;5075242;28;20479;-80
2023/06/09 13:29:44;;;;;;;6.00;5.50;;;;;;;;;;5077346;28;20463;-80
2023/06/09 13:32:12;;;;;;;7.40;5.20;;;;;;;;;;5080613;28;20476;-80
2023/06/09 13:34:38;;;;;;;6.00;5.40;;;;;;;;;;5072878;28;20465;-79
2023/06/09 13:37:05;;;;;;;10.03;5.60;;;;;;;;;;5080256;28;20471;-79
2023/06/09 13:39:32;;;;;;;8.80;5.50;;;;;;;;;;5091026;28;20446;-80
2023/06/09 13:41:58;;;;;;;9.87;5.97;;;;;;;;;;5082919;28;20463;-80
2023/06/09 13:44:25;;;;;;;5.50;4.87;;;;;;;;;;5077127;28;20450;-79
2023/06/09 13:46:51;;;;;;;6.63;4.93;;;;;;;;;;5082472;28;20545;-79
2023/06/09 13:49:19;;;;;;;7.00;5.70;;;;;;;;;;5079951;28;20447;-79
2023/06/09 13:51:45;;;;;;;7.40;5.50;;;;;;;;;;5071743;28;20466;-80
2023/06/09 13:54:12;;;;;;;8.23;6.00;;;;;;;;;;5091185;28;20445;-79
2023/06/09 13:56:39;;;;;;;6.33;5.47;;;;;;;;;;5082928;28;20459;-80
2023/06/09 13:59:05;;;;;;;8.33;5.87;;;;;;;;;;5086442;28;20470;-80
2023/06/09 14:01:32;;;;;;;6.17;5.00;;;;;;;;;;5079119;28;20500;-80
2023/06/09 14:03:59;;;;;;;6.93;5.77;;;;;;;;;;5079471;28;20471;-80
2023/06/09 14:06:26;;;;;;;5.90;5.40;;;;;;;;;;5076488;28;20450;-80
2023/06/09 14:08:53;;;;;;;11.80;5.70;;;;;;;;;;5084937;28;20474;-79
2023/06/09 14:11:20;;;;;;;5.70;5.13;;;;;;;;;;5081114;28;20482;-80
2023/06/09 14:13:46;;;;;;;8.80;6.00;;;;;;;;;;5079476;28;20804;-79
2023/06/09 14:16:13;;;;;;;7.20;5.40;;;;;;;;;;5088843;28;20449;-80
2023/06/09 14:18:39;;;;;;;6.80;5.70;;;;;;;;;;5090139;28;20481;-80
2023/06/09 14:21:06;;;;;;;8.07;5.40;;;;;;;;;;5079557;28;20458;-81
2023/06/09 14:23:33;;;;;;;5.40;4.90;;;;;;;;;;5085359;28;20470;-81
2023/06/09 14:26:00;;;;;;;6.20;5.50;;;;;;;;;;5074080;28;20451;-80
2023/06/09 14:28:26;;;;;;;7.77;5.50;;;;;;;;;;5086413;28;20474;-81
2023/06/09 14:30:53;;;;;;;6.43;5.13;;;;;;;;;;5090147;28;20458;-80
2023/06/09 14:33:20;;;;;;;6.97;5.30;;;;;;;;;;5086182;28;20463;-81
2023/06/09 14:35:47;;;;;;;7.20;5.37;;;;;;;;;;5075100;28;20443;-80
2023/06/09 14:38:13;;;;;;;5.60;5.03;;;;;;;;;;5080004;28;20486;-80
2023/06/09 14:40:41;;;;;;;6.80;5.37;;;;;;;;;;5074002;28;20515;-81